Time;durP1;ratioP1;P1;durP2;ratioP2;P2;SDS_P1;SDS_P2;PMS_P1;PMS_P2;Temp;Humidity;BMP_temperature;BMP_pressure;BME280_temperature;BME280_humidity;BME280_pressure;Samples;Min_cycle;Max_cycle;Signal;HPM_P1;HPM_P2
2021/07/17 00:03:26;;;;;;;16.10;8.87;;;;;;;23.38;65.21;98837.68;260391;1095;114587;-74
2021/07/17 00:08:31;;;;;;;14.47;7.50;;;;;;;23.32;65.30;98862.84;261515;1093;114471;-74
2021/07/17 00:13:36;;;;;;;12.17;8.30;;;;;;;23.25;65.19;98851.86;263181;1093;114480;-72
2021/07/17 00:18:40;;;;;;;16.60;8.65;;;;;;;23.23;65.16;98840.32;262764;1095;114372;-72
2021/07/17 00:23:45;;;;;;;14.08;8.43;;;;;;;23.19;65.30;98840.88;263023;1095;114783;-68
2021/07/17 00:28:50;;;;;;;12.57;8.73;;;;;;;23.11;64.92;98839.91;262146;1093;114663;-71
2021/07/17 00:33:54;;;;;;;13.58;8.73;;;;;;;23.02;65.22;98840.98;263078;1094;114628;-71
2021/07/17 00:38:59;;;;;;;10.43;8.03;;;;;;;22.95;65.24;98834.58;262585;1094;115714;-68
2021/07/17 00:44:03;;;;;;;;;;;;;;;22.92;65.62;98832.19;262919;1092;115144;-76
2021/07/17 00:49:10;;;;;;;10.48;8.58;;;;;;;22.87;65.90;98811.03;263273;1095;100987;-76
2021/07/17 00:54:19;;;;;;;14.20;9.53;;;;;;;22.97;66.13;98807.28;262484;1093;114494;-70
2021/07/17 00:59:28;;;;;;;16.13;8.90;;;;;;;23.08;66.28;98823.14;262288;1095;114448;-71
2021/07/17 01:04:32;;;;;;;13.07;8.37;;;;;;;23.00;65.85;98828.64;262837;1093;114966;-75
2021/07/17 01:09:36;;;;;;;11.30;8.33;;;;;;;22.98;66.17;98836.94;262640;1093;114768;-71
2021/07/17 01:14:41;;;;;;;11.63;8.68;;;;;;;22.90;66.21;98850.55;262682;1094;115474;-72
2021/07/17 01:19:45;;;;;;;14.23;8.93;;;;;;;22.84;66.10;98856.68;261375;1093;114627;-72
2021/07/17 01:24:50;;;;;;;16.48;9.20;;;;;;;22.77;66.23;98858.41;263094;1096;115164;-72
2021/07/17 01:29:55;;;;;;;9.00;7.67;;;;;;;22.71;66.24;98862.67;260677;1093;114718;-68
2021/07/17 01:34:59;;;;;;;10.80;7.80;;;;;;;22.69;66.17;98870.16;262350;1093;116875;-68
2021/07/17 01:40:05;;;;;;;18.63;9.13;;;;;;;22.65;66.42;98876.94;263070;1095;115656;-70
2021/07/17 01:45:10;;;;;;;12.27;8.67;;;;;;;22.59;66.53;98877.67;262580;1096;115027;-73
2021/07/17 01:50:15;;;;;;;14.53;9.60;;;;;;;22.57;66.49;98871.56;263068;1093;114559;-73
2021/07/17 01:55:19;;;;;;;10.70;8.00;;;;;;;22.55;67.00;98860.03;262693;1093;114776;-74
2021/07/17 02:00:28;;;;;;;15.43;8.00;;;;;;;22.58;67.02;98846.95;262291;1096;114853;-72
2021/07/17 02:05:33;;;;;;;12.03;8.33;;;;;;;22.59;66.96;98851.38;263227;1093;114881;-72
2021/07/17 02:10:37;;;;;;;15.15;8.63;;;;;;;22.60;66.79;98863.07;263278;1093;115058;-72
2021/07/17 02:15:50;;;;;;;12.17;9.13;;;;;;;22.56;66.83;98862.58;262353;1096;114598;-69
2021/07/17 02:20:54;;;;;;;13.30;8.53;;;;;;;22.54;67.04;98856.48;260700;1093;114503;-69
2021/07/17 02:25:59;;;;;;;17.77;9.23;;;;;;;22.54;66.92;98850.21;261365;1093;114932;-72
2021/07/17 02:31:04;;;;;;;;;;;;;;;22.57;67.13;98850.70;261793;1094;114868;-73
2021/07/17 02:36:08;;;;;;;19.50;9.70;;;;;;;22.54;66.95;98863.77;261663;1096;102968;-70
2021/07/17 02:41:12;;;;;;;21.50;10.33;;;;;;;22.52;67.08;98854.95;260391;1093;114890;-68
2021/07/17 02:46:17;;;;;;;;;;;;;;;22.47;67.36;98854.65;261130;1093;114837;-69
2021/07/17 02:51:22;;;;;;;15.40;8.80;;;;;;;22.41;67.21;98848.89;261357;1093;103030;-70
2021/07/17 02:56:26;;;;;;;16.43;11.00;;;;;;;22.39;67.16;98847.41;262041;1093;114739;-73
2021/07/17 03:01:31;;;;;;;17.17;10.00;;;;;;;22.37;67.47;98850.27;260686;1093;114709;-71
2021/07/17 03:06:36;;;;;;;15.07;9.77;;;;;;;22.32;67.41;98843.70;262304;1095;114705;-69
2021/07/17 03:11:40;;;;;;;;;;;;;;;22.29;67.59;98839.47;260749;1094;114652;-69
2021/07/17 03:16:44;;;;;;;14.93;9.80;;;;;;;22.28;67.61;98834.20;261622;1093;101866;-71
2021/07/17 03:21:48;;;;;;;15.00;9.87;;;;;;;22.29;67.89;98846.77;261307;1093;115517;-75
2021/07/17 03:26:57;;;;;;;16.80;9.97;;;;;;;22.29;67.68;98858.45;262184;1094;114504;-70
2021/07/17 03:32:04;;;;;;;143.17;91.80;;;;;;;22.54;69.03;98858.34;261694;1093;114785;-73
2021/07/17 03:37:12;;;;;;;38.20;26.10;;;;;;;22.89;69.09;98846.11;261138;1095;115654;-72
2021/07/17 03:42:19;;;;;;;21.70;13.83;;;;;;;23.20;68.92;98857.00;260962;1095;114832;-72
2021/07/17 03:47:29;;;;;;;22.07;17.37;;;;;;;23.40;68.41;98856.50;261015;1095;115130;-74
2021/07/17 03:52:37;;;;;;;23.03;17.30;;;;;;;23.55;68.40;98860.13;261239;1095;114729;-73
2021/07/17 03:57:45;;;;;;;27.93;19.17;;;;;;;23.65;68.22;98840.86;261243;1096;114765;-68
2021/07/17 04:02:53;;;;;;;19.67;13.87;;;;;;;23.76;67.78;98843.16;261155;1094;115091;-71
2021/07/17 04:07:59;;;;;;;20.33;13.27;;;;;;;23.77;67.68;98842.95;261184;1096;114478;-71
2021/07/17 04:13:08;;;;;;;18.50;11.33;;;;;;;23.76;67.33;98862.17;261226;1095;114932;-72
2021/07/17 04:18:17;;;;;;;20.57;12.50;;;;;;;23.73;67.24;98844.36;260841;1096;114969;-73
2021/07/17 04:23:26;;;;;;;185.00;150.73;;;;;;;23.75;67.36;98858.62;261055;1095;114770;-73
2021/07/17 04:28:31;;;;;;;23.87;13.43;;;;;;;23.75;67.25;98853.19;261808;1095;115566;-72
2021/07/17 04:33:36;;;;;;;18.70;13.80;;;;;;;23.79;67.24;98850.94;261514;1096;114951;-69
2021/07/17 04:38:45;;;;;;;21.60;15.37;;;;;;;23.81;67.28;98846.14;261136;1096;115167;-70
2021/07/17 04:43:53;;;;;;;17.63;13.20;;;;;;;23.77;67.22;98867.41;261159;1095;115104;-69
2021/07/17 04:49:03;;;;;;;19.80;13.70;;;;;;;23.76;67.26;98856.73;261506;1093;114859;-71
2021/07/17 04:54:16;;;;;;;18.40;13.40;;;;;;;23.78;67.44;98862.84;261124;1095;114742;-69
2021/07/17 04:59:27;;;;;;;16.35;11.48;;;;;;;23.85;67.39;98855.64;261699;1095;114680;-70
2021/07/17 05:04:31;;;;;;;16.50;12.58;;;;;;;23.88;67.32;98857.13;263255;1093;116503;-72
2021/07/17 05:09:34;;;;;;;14.58;12.50;;;;;;;23.91;67.45;98857.59;261551;1093;115027;-71
2021/07/17 05:14:38;;;;;;;18.90;13.05;;;;;;;23.96;67.46;98859.78;261945;1093;115334;-71
2021/07/17 05:19:41;;;;;;;16.20;12.50;;;;;;;23.96;67.25;98857.06;263245;1094;115471;-71
2021/07/17 05:24:45;;;;;;;17.87;12.17;;;;;;;23.95;67.29;98860.81;263116;1095;115492;-69
2021/07/17 05:29:49;;;;;;;16.58;12.25;;;;;;;24.02;67.30;98869.92;261910;1095;115005;-71
2021/07/17 05:34:52;;;;;;;20.03;12.53;;;;;;;24.04;67.14;98868.67;262547;1095;115120;-73
2021/07/17 05:39:57;;;;;;;17.40;12.40;;;;;;;24.08;67.26;98863.71;263274;1093;115623;-75
2021/07/17 05:45:01;;;;;;;;;;;;;;;24.17;67.30;98853.61;263082;1096;115350;-72
2021/07/17 05:50:05;;;;;;;16.37;11.27;;;;;;;24.23;67.21;98836.55;263019;1094;101279;-72
2021/07/17 05:55:09;;;;;;;;;;;;;;;24.30;67.37;98846.48;263289;1093;115098;-71
2021/07/17 06:00:19;;;;;;;16.60;12.43;;;;;;;24.34;67.21;98843.39;262701;1096;101089;-71
2021/07/17 06:05:22;;;;;;;14.97;12.30;;;;;;;24.41;67.23;98853.34;262080;1093;115651;-71
2021/07/17 06:10:26;;;;;;;18.23;12.23;;;;;;;24.45;66.90;98859.25;262720;1095;116033;-68
2021/07/17 06:15:31;;;;;;;19.18;12.30;;;;;;;24.50;67.06;98851.38;262824;1093;114960;-71
2021/07/17 06:20:35;;;;;;;15.80;11.95;;;;;;;24.54;67.01;98855.41;263195;1095;115162;-72
2021/07/17 06:25:39;;;;;;;15.13;10.83;;;;;;;24.55;67.07;98857.92;263047;1095;115786;-71
2021/07/17 06:30:43;;;;;;;18.20;11.77;;;;;;;24.60;67.16;98862.82;263244;1095;115407;-74
2021/07/17 06:35:47;;;;;;;15.25;11.63;;;;;;;24.66;67.11;98862.07;263230;1093;115115;-70
2021/07/17 06:40:50;;;;;;;20.55;12.25;;;;;;;24.72;66.81;98864.01;263171;1093;115433;-75
2021/07/17 06:45:54;;;;;;;17.25;13.43;;;;;;;24.79;67.07;98867.66;263261;1095;115125;-75
2021/07/17 06:50:58;;;;;;;18.35;14.05;;;;;;;24.83;67.07;98861.83;262554;1094;115582;-72
2021/07/17 06:56:02;;;;;;;;;;;;;;;24.87;66.94;98858.55;262562;1094;115133;-76
2021/07/17 07:01:06;;;;;;;20.90;14.17;;;;;;;24.87;66.97;98852.27;261981;1093;103120;-72
2021/07/17 07:06:10;;;;;;;16.67;11.93;;;;;;;24.89;66.87;98850.18;261380;1094;115553;-72
2021/07/17 07:11:14;;;;;;;17.23;11.53;;;;;;;24.92;66.99;98841.63;262699;1095;115520;-72
2021/07/17 07:16:18;;;;;;;13.38;11.53;;;;;;;24.95;66.94;98835.80;263268;1095;114899;-71
2021/07/17 07:21:21;;;;;;;19.13;14.70;;;;;;;25.01;66.89;98830.44;262939;1096;116308;-70
2021/07/17 07:26:25;;;;;;;17.98;12.25;;;;;;;25.04;66.90;98828.38;261889;1095;114882;-70
2021/07/17 07:31:29;;;;;;;14.08;10.38;;;;;;;25.08;66.69;98838.67;263233;1095;115005;-72
2021/07/17 07:36:33;;;;;;;17.05;10.45;;;;;;;25.13;66.67;98841.67;263128;1096;115843;-74
2021/07/17 07:41:36;;;;;;;47.18;15.43;;;;;;;25.16;66.57;98841.30;263170;1093;114743;-69
2021/07/17 07:46:40;;;;;;;24.83;11.33;;;;;;;25.19;66.54;98846.36;263131;1095;115951;-75
2021/07/17 07:51:44;;;;;;;13.45;10.13;;;;;;;25.19;66.13;98848.24;263138;1095;115182;-71
2021/07/17 07:56:48;;;;;;;10.95;9.08;;;;;;;25.22;66.38;98848.70;263130;1095;115644;-72
2021/07/17 08:01:51;;;;;;;16.85;10.20;;;;;;;25.29;66.07;98853.38;263164;1094;114849;-69
2021/07/17 08:06:55;;;;;;;14.18;9.83;;;;;;;25.35;66.28;98850.72;263118;1093;115246;-68
2021/07/17 08:11:59;;;;;;;16.60;10.93;;;;;;;25.38;66.12;98849.49;263072;1096;115589;-72
2021/07/17 08:17:06;;;;;;;13.90;10.20;;;;;;;25.45;66.08;98844.95;263112;1093;115262;-74
2021/07/17 08:22:10;;;;;;;15.03;10.50;;;;;;;25.50;65.67;98842.46;261772;1093;114924;-73
2021/07/17 08:27:14;;;;;;;10.95;8.90;;;;;;;25.54;66.05;98846.47;262666;1096;115833;-76
2021/07/17 08:32:17;;;;;;;16.28;10.35;;;;;;;25.57;65.73;98850.70;263084;1095;115370;-75
2021/07/17 08:37:21;;;;;;;15.73;9.93;;;;;;;25.56;65.73;98857.20;263065;1095;115273;-73
2021/07/17 08:42:25;;;;;;;10.38;8.78;;;;;;;25.58;65.67;98861.42;263203;1095;115114;-69
2021/07/17 08:47:35;;;;;;;15.05;10.25;;;;;;;25.65;65.44;98861.48;262763;1093;116120;-74
2021/07/17 08:52:39;;;;;;;16.43;10.57;;;;;;;25.66;65.52;98864.00;261572;1095;116386;-72
2021/07/17 08:57:43;;;;;;;;;;;;;;;25.70;65.46;98870.73;263180;1094;115622;-79
2021/07/17 09:02:49;;;;;;;16.77;9.70;;;;;;;25.67;65.45;98871.13;263226;1094;101080;-72
2021/07/17 09:07:57;;;;;;;25.37;9.80;;;;;;;25.66;65.38;98864.00;262965;1094;114434;-72
2021/07/17 09:13:10;;;;;;;16.23;9.73;;;;;;;25.72;65.72;98867.83;262887;1096;118983;-72
2021/07/17 09:18:15;;;;;;;13.83;8.83;;;;;;;25.76;65.24;98871.84;263118;1094;115877;-72
2021/07/17 09:23:24;;;;;;;12.90;8.83;;;;;;;25.75;65.25;98861.12;263173;1094;115415;-73
2021/07/17 09:28:32;;;;;;;13.17;9.83;;;;;;;25.76;64.41;98857.38;262977;1096;114806;-73
2021/07/17 09:33:36;;;;;;;11.50;9.00;;;;;;;25.78;65.28;98855.27;263177;1096;114602;-71
2021/07/17 09:38:40;;;;;;;10.20;8.00;;;;;;;25.79;65.00;98859.71;263056;1095;115207;-71
2021/07/17 09:43:43;;;;;;;13.08;8.73;;;;;;;25.82;65.14;98862.08;263201;1093;115029;-72
2021/07/17 09:48:49;;;;;;;13.03;8.80;;;;;;;25.82;65.06;98867.53;263103;1095;115310;-72
2021/07/17 09:54:01;;;;;;;13.77;8.23;;;;;;;25.84;65.19;98859.98;263069;1096;114916;-72
2021/07/17 09:59:08;;;;;;;12.07;8.80;;;;;;;25.92;64.78;98846.21;263145;1095;115509;-72
2021/07/17 10:04:14;;;;;;;11.50;9.07;;;;;;;26.02;65.15;98849.44;262249;1094;115241;-72
2021/07/17 10:09:22;;;;;;;13.17;8.80;;;;;;;26.07;64.43;98848.83;263136;1094;114567;-73
2021/07/17 10:14:33;;;;;;;12.33;8.60;;;;;;;26.11;64.87;98837.30;263156;1095;114654;-73
2021/07/17 10:19:38;;;;;;;14.23;9.50;;;;;;;26.17;64.60;98838.40;263155;1094;114577;-72
2021/07/17 10:24:42;;;;;;;12.00;8.90;;;;;;;26.14;64.42;98842.36;263123;1095;115562;-72
2021/07/17 10:29:47;;;;;;;48.27;39.63;;;;;;;26.14;64.71;98845.09;263105;1095;115506;-72
2021/07/17 10:34:50;;;;;;;;;;;;;;;26.24;64.56;98838.44;263229;1096;115431;-75
2021/07/17 10:40:19;;;;;;;13.73;10.30;;;;;;;26.21;64.20;98838.84;263190;1095;100987;-72
2021/07/17 10:45:37;;;;;;;13.77;8.57;;;;;;;26.19;64.17;98837.16;263179;1093;114850;-70
2021/07/17 10:50:45;;;;;;;13.13;9.70;;;;;;;26.35;64.42;98835.13;262509;1096;117854;-70
2021/07/17 10:55:49;;;;;;;12.30;9.50;;;;;;;26.40;64.28;98840.84;261674;1095;114906;-78
2021/07/17 11:00:55;;;;;;;14.47;10.20;;;;;;;26.38;64.00;98840.19;261681;1095;114815;-72
2021/07/17 11:06:35;;;;;;;11.43;9.20;;;;;;;26.37;64.16;98825.71;261642;1093;114977;-74
2021/07/17 11:11:42;;;;;;;34.27;24.10;;;;;;;26.58;64.48;98826.68;262973;1096;115357;-75
2021/07/17 11:16:50;;;;;;;;;;;;;;;26.78;64.04;98818.57;260837;1093;114814;-73
2021/07/17 11:22:11;;;;;;;15.80;11.33;;;;;;;26.99;64.24;98815.68;263098;1096;102202;-72
2021/07/17 11:27:17;;;;;;;15.93;10.00;;;;;;;27.20;63.77;98811.13;261690;1094;114988;-71
2021/07/17 11:32:21;;;;;;;12.43;10.30;;;;;;;27.07;63.13;98812.78;261901;1093;115211;-71
2021/07/17 11:37:27;;;;;;;14.53;9.93;;;;;;;26.98;63.01;98803.08;263167;1095;115009;-70
2021/07/17 11:42:36;;;;;;;10.53;8.87;;;;;;;26.97;63.02;98806.88;262863;1094;115038;-73
2021/07/17 11:47:40;;;;;;;11.63;9.50;;;;;;;26.92;63.13;98803.06;262783;1095;114811;-73
2021/07/17 11:52:43;;;;;;;16.48;10.28;;;;;;;27.09;63.59;98807.09;263273;1093;115009;-74
2021/07/17 11:57:48;;;;;;;13.28;10.28;;;;;;;27.23;63.57;98800.63;263188;1095;114683;-73
2021/07/17 12:02:57;;;;;;;15.07;10.67;;;;;;;27.38;62.92;98792.25;263220;1095;114898;-71
2021/07/17 12:08:02;;;;;;;12.93;9.93;;;;;;;27.70;63.63;98786.98;263151;1096;115239;-74
2021/07/17 12:13:06;;;;;;;11.07;9.83;;;;;;;27.85;62.92;98793.08;263217;1093;115086;-71
2021/07/17 12:18:15;;;;;;;16.05;10.15;;;;;;;27.74;62.21;98782.76;262498;1093;115129;-73
2021/07/17 12:23:26;;;;;;;16.23;10.97;;;;;;;27.84;62.39;98783.20;262996;1095;115157;-73
2021/07/17 12:28:40;;;;;;;18.13;10.50;;;;;;;27.79;62.57;98785.75;263025;1096;115232;-70
2021/07/17 12:33:49;;;;;;;14.83;10.97;;;;;;;28.04;63.08;98769.48;262749;1094;114917;-74
2021/07/17 12:38:59;;;;;;;12.37;10.20;;;;;;;28.27;62.66;98755.31;261449;1095;114918;-72
2021/07/17 12:44:07;;;;;;;13.40;10.50;;;;;;;28.12;61.58;98744.61;263150;1095;115647;-73
2021/07/17 12:49:15;;;;;;;16.23;9.80;;;;;;;28.23;61.83;98741.23;263170;1095;115054;-73
2021/07/17 12:54:22;;;;;;;17.53;8.87;;;;;;;28.42;62.06;98734.00;260740;1093;115081;-72
2021/07/17 12:59:34;;;;;;;14.00;9.78;;;;;;;28.47;61.62;98725.16;263089;1096;115160;-72
2021/07/17 13:04:45;;;;;;;13.90;10.97;;;;;;;28.78;61.86;98712.55;262956;1095;115027;-70
2021/07/17 13:09:49;;;;;;;15.90;10.80;;;;;;;28.94;61.32;98704.64;262221;1093;114622;-74
2021/07/17 13:14:54;;;;;;;12.80;9.53;;;;;;;29.07;61.18;98700.97;263234;1093;118396;-71
2021/07/17 13:20:06;;;;;;;11.67;9.63;;;;;;;29.21;60.92;98690.73;263248;1093;115324;-74
2021/07/17 13:25:14;;;;;;;13.03;9.97;;;;;;;29.29;60.49;98692.38;263108;1095;115068;-73
2021/07/17 13:30:29;;;;;;;13.83;9.20;;;;;;;29.35;60.36;98677.73;262354;1094;115299;-75
2021/07/17 13:35:34;;;;;;;12.90;10.10;;;;;;;29.11;59.36;98680.30;263213;1093;115230;-73
2021/07/17 13:40:43;;;;;;;15.87;10.53;;;;;;;28.80;59.17;98683.85;262851;1096;115086;-73
2021/07/17 13:45:48;;;;;;;13.33;10.93;;;;;;;28.79;60.01;98676.70;262215;1096;115116;-72
2021/07/17 13:50:52;;;;;;;11.87;10.23;;;;;;;28.89;59.78;98673.48;263067;1096;115607;-75
2021/07/17 13:56:05;;;;;;;11.03;9.27;;;;;;;29.18;60.32;98664.63;262930;1095;115204;-74
2021/07/17 14:01:21;;;;;;;13.83;8.95;;;;;;;29.38;59.79;98660.84;263083;1093;114721;-74
2021/07/17 14:06:28;;;;;;;13.03;9.50;;;;;;;29.55;59.62;98642.77;263251;1093;115388;-74
2021/07/17 14:11:34;;;;;;;17.60;10.07;;;;;;;29.47;58.56;98649.36;263185;1095;115147;-73
2021/07/17 14:16:38;;;;;;;15.27;10.30;;;;;;;29.49;58.72;98640.09;263218;1095;115253;-72
2021/07/17 14:21:42;;;;;;;17.90;9.27;;;;;;;29.52;58.59;98624.02;263148;1095;114609;-72
2021/07/17 14:26:46;;;;;;;16.63;9.47;;;;;;;29.53;58.26;98611.97;262417;1095;114881;-71
2021/07/17 14:31:50;;;;;;;13.73;9.33;;;;;;;29.42;58.72;98624.54;263027;1096;114987;-72
2021/07/17 14:36:53;;;;;;;15.67;9.93;;;;;;;29.50;58.79;98620.66;263194;1093;114535;-71
2021/07/17 14:41:59;;;;;;;15.63;10.17;;;;;;;29.52;58.69;98624.02;262435;1094;114590;-77
2021/07/17 14:47:04;;;;;;;13.67;9.80;;;;;;;29.38;58.46;98615.09;262742;1096;114929;-74
2021/07/17 14:52:08;;;;;;;15.57;10.13;;;;;;;29.07;57.90;98610.53;263186;1095;114927;-75
2021/07/17 14:57:12;;;;;;;15.80;10.07;;;;;;;28.87;58.64;98615.31;263191;1095;115295;-76
2021/07/17 15:02:16;;;;;;;14.15;9.50;;;;;;;28.84;58.72;98611.14;263212;1094;116778;-75
2021/07/17 15:07:20;;;;;;;12.47;10.57;;;;;;;28.79;58.75;98605.48;263062;1095;115408;-76
2021/07/17 15:12:24;;;;;;;14.03;9.93;;;;;;;28.65;58.47;98582.84;262525;1096;114850;-70
2021/07/17 15:17:30;;;;;;;13.40;9.50;;;;;;;28.41;58.76;98589.14;263272;1092;114722;-75
2021/07/17 15:22:34;;;;;;;15.43;9.90;;;;;;;28.19;58.82;98586.73;262379;1093;114731;-76
2021/07/17 15:27:37;;;;;;;;;;;;;;;28.13;59.00;98581.30;261336;1095;114860;-74
2021/07/17 15:32:42;;;;;;;13.37;10.10;;;;;;;28.14;59.38;98572.86;262869;1095;102085;-75
2021/07/17 15:37:46;;;;;;;14.30;10.25;;;;;;;28.09;59.24;98569.92;263189;1095;115244;-75
2021/07/17 15:42:50;;;;;;;;;;;;;;;28.18;59.72;98578.72;263215;1093;115018;-73
2021/07/17 15:47:54;;;;;;;16.60;11.30;;;;;;;28.10;59.38;98587.20;261960;1095;102902;-72
2021/07/17 15:52:58;;;;;;;14.10;10.50;;;;;;;28.01;59.78;98581.97;260926;1095;115387;-73
2021/07/17 15:58:02;;;;;;;15.88;11.25;;;;;;;27.97;59.71;98580.73;261715;1096;115087;-72
2021/07/17 16:03:06;;;;;;;17.20;12.13;;;;;;;27.80;60.26;98577.66;261437;1095;115150;-74
2021/07/17 16:08:11;;;;;;;15.17;10.77;;;;;;;27.87;61.14;98582.27;261706;1096;115399;-75
2021/07/17 16:13:14;;;;;;;16.95;13.20;;;;;;;27.90;61.39;98599.08;261885;1096;119098;-74
2021/07/17 16:18:18;;;;;;;20.93;12.80;;;;;;;27.95;61.71;98612.92;263230;1095;114980;-74
2021/07/17 16:23:22;;;;;;;17.80;11.88;;;;;;;28.00;62.21;98598.62;262995;1095;115330;-71
2021/07/17 16:28:25;;;;;;;14.45;12.13;;;;;;;28.00;62.28;98593.98;261746;1096;115223;-74
2021/07/17 16:33:30;;;;;;;18.98;11.80;;;;;;;27.85;62.03;98612.55;262967;1095;115100;-73
2021/07/17 16:38:33;;;;;;;13.37;9.27;;;;;;;27.48;61.46;98608.66;261234;1096;115059;-74
2021/07/17 16:43:38;;;;;;;12.75;8.80;;;;;;;27.03;60.60;98605.77;262454;1096;115369;-73
2021/07/17 16:48:42;;;;;;;17.05;9.40;;;;;;;26.70;61.27;98625.75;262159;1095;114948;-72
2021/07/17 16:53:45;;;;;;;15.00;9.83;;;;;;;26.49;61.34;98639.56;263110;1095;115518;-73
2021/07/17 16:58:50;;;;;;;21.25;10.10;;;;;;;26.31;61.45;98631.95;263163;1093;114882;-73
2021/07/17 17:03:53;;;;;;;18.37;8.20;;;;;;;26.11;62.48;98619.08;263216;1095;115663;-72
2021/07/17 17:08:57;;;;;;;13.68;8.58;;;;;;;26.00;62.74;98636.05;263219;1095;114996;-72
2021/07/17 17:14:01;;;;;;;19.18;11.13;;;;;;;25.92;63.07;98617.99;262970;1095;114845;-72
2021/07/17 17:19:05;;;;;;;16.07;10.27;;;;;;;25.90;63.49;98619.23;263083;1094;211369;-72
2021/07/17 17:24:08;;;;;;;17.80;10.23;;;;;;;25.86;63.31;98626.98;263195;1096;115513;-72
2021/07/17 17:29:12;;;;;;;16.55;11.03;;;;;;;25.88;64.08;98665.80;263211;1096;115591;-72
2021/07/17 17:34:18;;;;;;;11.67;9.30;;;;;;;25.91;63.94;98664.53;262972;1095;115156;-73
2021/07/17 17:39:22;;;;;;;17.40;10.95;;;;;;;25.87;63.98;98630.55;263262;1093;114503;-71
2021/07/17 17:44:26;;;;;;;13.30;10.60;;;;;;;25.84;64.61;98644.58;263157;1095;115094;-74
2021/07/17 17:49:35;;;;;;;15.50;11.18;;;;;;;25.85;65.37;98638.94;263310;1092;115456;-72
2021/07/17 17:54:42;;;;;;;13.37;10.07;;;;;;;25.85;65.16;98671.66;263193;1093;115293;-72
2021/07/17 17:59:46;;;;;;;12.97;8.80;;;;;;;25.85;64.92;98673.52;263254;1093;114775;-73
2021/07/17 18:05:14;;;;;;;15.93;10.73;;;;;;;25.88;65.47;98679.44;263200;1094;114879;-72
2021/07/17 18:10:19;;;;;;;16.80;10.73;;;;;;;25.92;65.21;98702.52;261904;1096;115285;-76
2021/07/17 18:15:23;;;;;;;16.50;10.70;;;;;;;25.94;65.12;98694.13;261875;1093;115273;-76
2021/07/17 18:20:27;;;;;;;;;;;;;;;25.84;64.94;98671.84;263039;1096;115095;-76
2021/07/17 18:25:31;;;;;;;14.50;9.40;;;;;;;25.78;65.62;98703.47;263317;1096;101621;-76
2021/07/17 18:30:35;;;;;;;15.23;9.90;;;;;;;25.84;65.24;98724.48;262487;1093;115694;-76
2021/07/17 18:35:39;;;;;;;18.88;12.45;;;;;;;25.87;65.40;98724.08;261793;1094;115020;-75
2021/07/17 18:40:43;;;;;;;18.03;10.88;;;;;;;25.79;65.21;98709.76;262988;1096;115240;-75
2021/07/17 18:45:47;;;;;;;12.23;9.20;;;;;;;25.66;64.92;98711.35;262248;1093;115018;-75
2021/07/17 18:50:51;;;;;;;13.33;8.53;;;;;;;25.57;64.84;98714.42;262375;1093;114733;-75
2021/07/17 18:55:55;;;;;;;16.60;10.18;;;;;;;25.51;65.26;98743.34;262301;1095;115356;-75
2021/07/17 19:00:59;;;;;;;;;;;;;;;25.42;65.22;98747.24;261926;1095;115150;-74
2021/07/17 19:06:03;;;;;;;12.20;9.57;;;;;;;25.35;65.45;98736.29;262632;1094;102703;-75
2021/07/17 19:11:07;;;;;;;13.47;7.97;;;;;;;25.17;64.60;98738.63;263279;1093;114617;-74
2021/07/17 19:16:11;;;;;;;17.05;13.65;;;;;;;25.13;65.03;98756.41;263238;1093;115222;-74
2021/07/17 19:21:14;;;;;;;12.50;9.28;;;;;;;25.15;65.08;98757.91;262886;1095;115285;-73
2021/07/17 19:26:18;;;;;;;14.75;8.93;;;;;;;25.08;64.23;98765.14;260685;1095;115004;-73
2021/07/17 19:31:22;;;;;;;11.60;8.90;;;;;;;25.00;64.37;98744.34;263249;1093;115007;-74
2021/07/17 19:36:26;;;;;;;12.50;9.28;;;;;;;24.86;64.53;98758.84;263218;1094;115222;-72
2021/07/17 19:41:29;;;;;;;11.30;7.60;;;;;;;24.71;64.18;98760.78;262857;1096;114598;-74
2021/07/17 19:46:33;;;;;;;11.73;8.43;;;;;;;24.59;64.20;98730.49;261828;1095;115510;-73
2021/07/17 19:51:37;;;;;;;11.98;8.20;;;;;;;24.66;65.14;98736.88;263239;1093;114910;-73
2021/07/17 19:56:41;;;;;;;13.50;9.25;;;;;;;24.75;65.24;98708.48;263165;1093;114994;-73
2021/07/17 20:01:45;;;;;;;14.17;9.50;;;;;;;24.84;65.46;98716.53;263245;1095;114839;-74
2021/07/17 20:06:49;;;;;;;13.30;7.73;;;;;;;24.74;64.00;98720.41;263116;1093;115495;-73
2021/07/17 20:11:53;;;;;;;9.25;6.53;;;;;;;24.50;63.55;98729.79;263267;1094;115168;-78
2021/07/17 20:16:57;;;;;;;11.38;5.95;;;;;;;24.24;63.59;98730.27;263264;1093;114279;-75
2021/07/17 20:22:01;;;;;;;10.60;6.40;;;;;;;24.13;63.71;98722.61;263200;1095;114951;-74
2021/07/17 20:27:06;;;;;;;;;;;;;;;24.06;63.82;98721.69;263255;1095;114990;-72
2021/07/17 20:32:10;;;;;;;11.68;5.98;;;;;;;24.01;64.07;98702.37;263308;1093;109917;-73
2021/07/17 20:37:15;;;;;;;10.63;6.37;;;;;;;23.93;64.09;98697.89;263200;1093;114573;-76
2021/07/17 20:42:20;;;;;;;;;;;;;;;23.83;63.94;98710.92;262068;1094;114709;-75
2021/07/17 20:47:23;;;;;;;;;;;;;;;23.67;63.98;98730.93;261802;1094;102691;-73
2021/07/17 20:52:27;;;;;;;11.37;5.97;;;;;;;23.53;64.19;98727.17;263293;1093;101205;-74
2021/07/17 20:57:30;;;;;;;7.25;5.28;;;;;;;23.45;64.21;98723.72;263281;1093;114821;-75
2021/07/17 21:02:36;;;;;;;10.37;5.33;;;;;;;23.44;64.61;98731.02;262867;1094;116819;-73
2021/07/17 21:07:41;;;;;;;8.97;6.27;;;;;;;23.48;64.79;98732.34;261870;1093;114942;-72
2021/07/17 21:12:46;;;;;;;10.50;6.57;;;;;;;23.47;64.68;98719.80;261900;1093;114676;-73
2021/07/17 21:17:51;;;;;;;8.97;5.80;;;;;;;23.47;64.88;98710.77;261851;1093;114959;-77
2021/07/17 21:22:56;;;;;;;9.23;6.10;;;;;;;23.37;64.50;98714.63;261806;1093;114980;-72
2021/07/17 21:28:00;;;;;;;14.20;5.93;;;;;;;23.28;65.05;98710.29;263208;1093;114880;-75
2021/07/17 21:33:05;;;;;;;13.35;6.05;;;;;;;23.23;64.92;98712.70;262823;1093;115511;-74
2021/07/17 21:38:09;;;;;;;17.20;10.60;;;;;;;23.18;65.02;98723.28;262465;1094;114778;-72
2021/07/17 21:43:12;;;;;;;11.20;6.53;;;;;;;23.17;65.43;98724.32;261591;1095;115620;-74
2021/07/17 21:48:16;;;;;;;13.20;6.85;;;;;;;23.15;65.50;98731.80;262099;1095;115346;-73
2021/07/17 21:53:20;;;;;;;11.80;6.43;;;;;;;23.12;65.30;98733.00;263257;1094;115513;-71
2021/07/17 21:58:25;;;;;;;6.83;5.47;;;;;;;23.11;65.55;98728.60;263201;1093;114845;-77
2021/07/17 22:03:33;;;;;;;;;;;;;;;23.13;65.81;98722.97;262611;1093;115308;-73
2021/07/17 22:08:56;;;;;;;9.87;6.77;;;;;;;23.12;65.84;98740.30;262125;1095;103144;-72
2021/07/17 22:21:15;;;;;;;16.95;8.45;;;;;;;22.98;66.19;98743.81;262643;1096;103513;-75
2021/07/17 22:26:28;;;;;;;8.47;6.60;;;;;;;22.97;66.17;98715.00;262243;1094;114340;-76
2021/07/17 22:31:32;;;;;;;11.63;6.67;;;;;;;22.99;66.41;98710.21;263032;1094;114739;-76
2021/07/17 22:36:36;;;;;;;11.73;7.95;;;;;;;23.03;66.66;98731.40;262124;1095;115027;-73
2021/07/17 22:41:40;;;;;;;18.40;8.58;;;;;;;23.00;66.44;98722.78;262399;1095;114572;-77
2021/07/17 22:46:43;;;;;;;10.85;8.05;;;;;;;22.95;66.73;98726.02;263063;1096;114788;-74
2021/07/17 22:51:47;;;;;;;12.20;7.85;;;;;;;22.86;66.50;98718.92;262301;1095;114992;-75
2021/07/17 22:56:51;;;;;;;10.10;7.73;;;;;;;22.84;66.81;98718.28;263223;1096;115408;-72
2021/07/17 23:01:54;;;;;;;9.08;7.15;;;;;;;22.83;66.87;98724.74;260335;1095;115034;-75
2021/07/17 23:07:00;;;;;;;11.97;7.60;;;;;;;22.87;66.94;98724.19;262527;1095;116047;-75
2021/07/17 23:12:04;;;;;;;;;;;;;;;22.86;67.01;98719.80;263158;1096;115134;-75
2021/07/17 23:17:10;;;;;;;12.03;8.58;;;;;;;22.82;67.25;98694.02;263123;1096;103037;-74
2021/07/17 23:22:16;;;;;;;9.83;7.20;;;;;;;22.83;67.36;98676.73;263100;1095;114841;-73